sensor_id;sensor_type;location;lat;lon;timestamp;temperature;humidity
70244;DHT22;57634;51.136;17.024;2023-04-03T00:01:22;3.80;65.90
70244;DHT22;57634;51.136;17.024;2023-04-03T00:04:24;3.70;66.10
70244;DHT22;57634;51.136;17.024;2023-04-03T00:07:26;3.70;66.30
70244;DHT22;57634;51.136;17.024;2023-04-03T00:10:28;3.70;66.40
70244;DHT22;57634;51.136;17.024;2023-04-03T00:13:30;3.70;66.60
70244;DHT22;57634;51.136;17.024;2023-04-03T00:16:57;3.70;66.60
70244;DHT22;57634;51.136;17.024;2023-04-03T00:19:58;3.70;66.80
70244;DHT22;57634;51.136;17.024;2023-04-03T00:23:02;3.60;66.90
70244;DHT22;57634;51.136;17.024;2023-04-03T00:26:03;3.60;67.00
70244;DHT22;57634;51.136;17.024;2023-04-03T00:29:05;3.60;67.10
70244;DHT22;57634;51.136;17.024;2023-04-03T00:32:06;3.50;67.20
70244;DHT22;57634;51.136;17.024;2023-04-03T00:35:10;3.50;67.30
70244;DHT22;57634;51.136;17.024;2023-04-03T00:38:12;3.50;67.50
70244;DHT22;57634;51.136;17.024;2023-04-03T00:41:14;3.40;67.50
70244;DHT22;57634;51.136;17.024;2023-04-03T00:44:22;3.50;67.60
70244;DHT22;57634;51.136;17.024;2023-04-03T00:47:24;3.40;67.70
70244;DHT22;57634;51.136;17.024;2023-04-03T00:50:54;3.30;67.80
70244;DHT22;57634;51.136;17.024;2023-04-03T00:56:08;3.30;68.00
70244;DHT22;57634;51.136;17.024;2023-04-03T00:59:19;3.20;68.10
70244;DHT22;57634;51.136;17.024;2023-04-03T01:02:27;3.10;68.40
70244;DHT22;57634;51.136;17.024;2023-04-03T01:05:28;3.10;68.60
70244;DHT22;57634;51.136;17.024;2023-04-03T01:08:30;3.00;68.70
70244;DHT22;57634;51.136;17.024;2023-04-03T01:11:32;3.10;68.90
70244;DHT22;57634;51.136;17.024;2023-04-03T01:14:34;3.00;69.10
70244;DHT22;57634;51.136;17.024;2023-04-03T01:17:42;3.00;69.30
70244;DHT22;57634;51.136;17.024;2023-04-03T01:24:31;3.10;69.60
70244;DHT22;57634;51.136;17.024;2023-04-03T01:27:36;3.10;69.60
70244;DHT22;57634;51.136;17.024;2023-04-03T01:33:50;3.20;69.80
70244;DHT22;57634;51.136;17.024;2023-04-03T01:36:52;3.20;69.80
70244;DHT22;57634;51.136;17.024;2023-04-03T01:40:21;3.30;69.70
70244;DHT22;57634;51.136;17.024;2023-04-03T01:43:22;3.30;69.70
70244;DHT22;57634;51.136;17.024;2023-04-03T01:46:24;3.30;69.60
70244;DHT22;57634;51.136;17.024;2023-04-03T01:49:25;3.30;69.70
70244;DHT22;57634;51.136;17.024;2023-04-03T01:52:27;3.30;69.70
70244;DHT22;57634;51.136;17.024;2023-04-03T01:55:29;3.20;69.70
70244;DHT22;57634;51.136;17.024;2023-04-03T01:58:30;3.20;69.80
70244;DHT22;57634;51.136;17.024;2023-04-03T02:01:31;3.20;69.80
70244;DHT22;57634;51.136;17.024;2023-04-03T02:04:33;3.20;70.00
70244;DHT22;57634;51.136;17.024;2023-04-03T02:07:36;3.10;70.00
70244;DHT22;57634;51.136;17.024;2023-04-03T02:10:37;3.10;70.10
70244;DHT22;57634;51.136;17.024;2023-04-03T02:13:38;3.10;70.30
70244;DHT22;57634;51.136;17.024;2023-04-03T02:16:39;3.00;70.30
70244;DHT22;57634;51.136;17.024;2023-04-03T02:19:40;3.00;70.50
70244;DHT22;57634;51.136;17.024;2023-04-03T02:22:42;2.90;70.60
70244;DHT22;57634;51.136;17.024;2023-04-03T02:26:12;2.90;70.70
70244;DHT22;57634;51.136;17.024;2023-04-03T02:29:14;2.80;70.90
70244;DHT22;57634;51.136;17.024;2023-04-03T02:32:16;2.80;71.10
70244;DHT22;57634;51.136;17.024;2023-04-03T02:35:18;2.70;71.30
70244;DHT22;57634;51.136;17.024;2023-04-03T02:38:20;2.70;71.50
70244;DHT22;57634;51.136;17.024;2023-04-03T02:41:21;2.60;71.60
70244;DHT22;57634;51.136;17.024;2023-04-03T02:44:22;2.60;71.90
70244;DHT22;57634;51.136;17.024;2023-04-03T02:47:24;2.60;72.10
70244;DHT22;57634;51.136;17.024;2023-04-03T02:50:25;2.50;72.20
70244;DHT22;57634;51.136;17.024;2023-04-03T02:53:27;2.60;72.40
70244;DHT22;57634;51.136;17.024;2023-04-03T02:56:28;2.50;72.50
70244;DHT22;57634;51.136;17.024;2023-04-03T02:59:30;2.50;72.70
70244;DHT22;57634;51.136;17.024;2023-04-03T03:02:31;2.50;72.80
70244;DHT22;57634;51.136;17.024;2023-04-03T03:05:32;2.50;72.90
70244;DHT22;57634;51.136;17.024;2023-04-03T03:08:59;2.50;73.00
70244;DHT22;57634;51.136;17.024;2023-04-03T03:12:01;2.50;73.00
70244;DHT22;57634;51.136;17.024;2023-04-03T03:15:02;2.50;73.20
70244;DHT22;57634;51.136;17.024;2023-04-03T03:18:03;2.50;73.30
70244;DHT22;57634;51.136;17.024;2023-04-03T03:21:05;2.50;73.40
70244;DHT22;57634;51.136;17.024;2023-04-03T03:24:07;2.40;73.30
70244;DHT22;57634;51.136;17.024;2023-04-03T03:27:08;2.30;73.40
70244;DHT22;57634;51.136;17.024;2023-04-03T03:30:11;2.30;73.70
70244;DHT22;57634;51.136;17.024;2023-04-03T03:33:12;2.20;73.80
70244;DHT22;57634;51.136;17.024;2023-04-03T03:36:13;2.20;74.00
70244;DHT22;57634;51.136;17.024;2023-04-03T03:39:16;2.10;74.10
70244;DHT22;57634;51.136;17.024;2023-04-03T03:42:17;2.10;74.20
70244;DHT22;57634;51.136;17.024;2023-04-03T03:45:18;2.00;74.30
70244;DHT22;57634;51.136;17.024;2023-04-03T03:48:21;2.00;74.50
70244;DHT22;57634;51.136;17.024;2023-04-03T03:51:50;1.90;74.70
70244;DHT22;57634;51.136;17.024;2023-04-03T03:54:52;1.80;75.00
70244;DHT22;57634;51.136;17.024;2023-04-03T03:57:54;1.90;75.20
70244;DHT22;57634;51.136;17.024;2023-04-03T04:00:55;1.80;75.20
70244;DHT22;57634;51.136;17.024;2023-04-03T04:03:56;1.80;75.30
70244;DHT22;57634;51.136;17.024;2023-04-03T04:06:57;1.80;75.50
70244;DHT22;57634;51.136;17.024;2023-04-03T04:10:03;1.70;75.60
70244;DHT22;57634;51.136;17.024;2023-04-03T04:13:05;1.80;75.70
70244;DHT22;57634;51.136;17.024;2023-04-03T04:16:07;1.70;75.80
70244;DHT22;57634;51.136;17.024;2023-04-03T04:19:08;1.70;75.80
70244;DHT22;57634;51.136;17.024;2023-04-03T04:22:10;1.70;76.00
70244;DHT22;57634;51.136;17.024;2023-04-03T04:25:12;1.70;76.10
70244;DHT22;57634;51.136;17.024;2023-04-03T04:28:15;1.70;76.10
70244;DHT22;57634;51.136;17.024;2023-04-03T04:31:43;1.60;76.20
70244;DHT22;57634;51.136;17.024;2023-04-03T04:34:44;1.70;76.50
70244;DHT22;57634;51.136;17.024;2023-04-03T04:37:45;1.70;76.60
70244;DHT22;57634;51.136;17.024;2023-04-03T04:40:47;1.70;76.70
70244;DHT22;57634;51.136;17.024;2023-04-03T04:43:49;1.70;77.20
70244;DHT22;57634;51.136;17.024;2023-04-03T04:46:51;2.00;78.60
70244;DHT22;57634;51.136;17.024;2023-04-03T04:49:52;2.50;79.60
70244;DHT22;57634;51.136;17.024;2023-04-03T04:52:53;3.30;79.80
70244;DHT22;57634;51.136;17.024;2023-04-03T04:55:54;4.20;78.90
70244;DHT22;57634;51.136;17.024;2023-04-03T04:58:56;5.10;77.40
70244;DHT22;57634;51.136;17.024;2023-04-03T05:01:57;6.10;75.60
70244;DHT22;57634;51.136;17.024;2023-04-03T05:04:58;7.10;72.70
70244;DHT22;57634;51.136;17.024;2023-04-03T05:07:59;8.00;70.20
70244;DHT22;57634;51.136;17.024;2023-04-03T05:11:00;8.90;67.90
70244;DHT22;57634;51.136;17.024;2023-04-03T05:14:01;9.70;65.40
70244;DHT22;57634;51.136;17.024;2023-04-03T05:17:32;10.60;62.70
70244;DHT22;57634;51.136;17.024;2023-04-03T05:20:34;11.40;59.90
70244;DHT22;57634;51.136;17.024;2023-04-03T05:23:35;12.20;57.60
70244;DHT22;57634;51.136;17.024;2023-04-03T05:26:37;13.00;55.20
70244;DHT22;57634;51.136;17.024;2023-04-03T05:29:42;13.60;53.10
70244;DHT22;57634;51.136;17.024;2023-04-03T05:32:45;14.20;51.10
70244;DHT22;57634;51.136;17.024;2023-04-03T05:35:46;14.70;49.50
70244;DHT22;57634;51.136;17.024;2023-04-03T05:38:48;14.80;47.90
70244;DHT22;57634;51.136;17.024;2023-04-03T05:41:49;14.90;47.30
70244;DHT22;57634;51.136;17.024;2023-04-03T05:44:50;15.00;46.10
70244;DHT22;57634;51.136;17.024;2023-04-03T05:47:51;14.80;45.90
70244;DHT22;57634;51.136;17.024;2023-04-03T05:50:52;14.60;45.70
70244;DHT22;57634;51.136;17.024;2023-04-03T05:54:04;14.40;45.60
70244;DHT22;57634;51.136;17.024;2023-04-03T05:57:31;14.20;45.90
70244;DHT22;57634;51.136;17.024;2023-04-03T06:00:32;13.90;45.60
70244;DHT22;57634;51.136;17.024;2023-04-03T06:03:33;14.00;45.90
70244;DHT22;57634;51.136;17.024;2023-04-03T06:09:49;14.20;45.50
70244;DHT22;57634;51.136;17.024;2023-04-03T06:12:50;14.80;45.20
70244;DHT22;57634;51.136;17.024;2023-04-03T06:15:55;15.60;44.40
70244;DHT22;57634;51.136;17.024;2023-04-03T06:18:57;16.50;43.10
70244;DHT22;57634;51.136;17.024;2023-04-03T06:21:59;17.10;41.60
70244;DHT22;57634;51.136;17.024;2023-04-03T06:25:01;17.50;40.10
70244;DHT22;57634;51.136;17.024;2023-04-03T06:28:30;17.60;38.70
70244;DHT22;57634;51.136;17.024;2023-04-03T06:31:31;17.60;38.40
70244;DHT22;57634;51.136;17.024;2023-04-03T06:34:33;18.00;38.00
70244;DHT22;57634;51.136;17.024;2023-04-03T06:37:34;18.60;37.40
70244;DHT22;57634;51.136;17.024;2023-04-03T06:40:36;18.50;35.30
70244;DHT22;57634;51.136;17.024;2023-04-03T06:43:37;18.30;36.20
70244;DHT22;57634;51.136;17.024;2023-04-03T06:46:39;18.60;36.90
70244;DHT22;57634;51.136;17.024;2023-04-03T06:49:41;18.80;34.60
70244;DHT22;57634;51.136;17.024;2023-04-03T06:52:46;18.20;35.20
70244;DHT22;57634;51.136;17.024;2023-04-03T06:55:47;17.90;35.80
70244;DHT22;57634;51.136;17.024;2023-04-03T06:58:49;18.10;36.30
70244;DHT22;57634;51.136;17.024;2023-04-03T07:01:52;18.70;36.00
70244;DHT22;57634;51.136;17.024;2023-04-03T07:04:53;18.60;33.70
70244;DHT22;57634;51.136;17.024;2023-04-03T07:08:20;17.80;34.40
70244;DHT22;57634;51.136;17.024;2023-04-03T07:11:24;16.90;34.70
70244;DHT22;57634;51.136;17.024;2023-04-03T07:14:26;16.30;35.80
70244;DHT22;57634;51.136;17.024;2023-04-03T07:17:27;16.30;36.70
70244;DHT22;57634;51.136;17.024;2023-04-03T07:20:29;16.10;36.30
70244;DHT22;57634;51.136;17.024;2023-04-03T07:23:30;16.10;36.50
70244;DHT22;57634;51.136;17.024;2023-04-03T07:26:32;16.00;36.80
70244;DHT22;57634;51.136;17.024;2023-04-03T07:29:33;15.90;36.30
70244;DHT22;57634;51.136;17.024;2023-04-03T07:32:34;15.50;36.60
70244;DHT22;57634;51.136;17.024;2023-04-03T07:35:37;15.60;37.70
70244;DHT22;57634;51.136;17.024;2023-04-03T07:38:39;16.20;37.70
70244;DHT22;57634;51.136;17.024;2023-04-03T07:41:41;16.90;36.40
70244;DHT22;57634;51.136;17.024;2023-04-03T07:44:42;17.00;35.30
70244;DHT22;57634;51.136;17.024;2023-04-03T07:48:12;16.70;34.60
70244;DHT22;57634;51.136;17.024;2023-04-03T07:51:13;15.50;34.90
70244;DHT22;57634;51.136;17.024;2023-04-03T07:54:15;14.30;36.00
70244;DHT22;57634;51.136;17.024;2023-04-03T07:57:17;13.70;38.10
70244;DHT22;57634;51.136;17.024;2023-04-03T08:00:18;13.80;39.10
70244;DHT22;57634;51.136;17.024;2023-04-03T08:03:20;14.50;38.90
70244;DHT22;57634;51.136;17.024;2023-04-03T08:06:22;15.40;38.00
70244;DHT22;57634;51.136;17.024;2023-04-03T08:09:23;15.50;36.20
70244;DHT22;57634;51.136;17.024;2023-04-03T08:12:24;15.20;36.70
70244;DHT22;57634;51.136;17.024;2023-04-03T08:15:25;15.50;37.50
70244;DHT22;57634;51.136;17.024;2023-04-03T08:18:27;16.10;36.90
70244;DHT22;57634;51.136;17.024;2023-04-03T08:21:29;16.70;35.70
70244;DHT22;57634;51.136;17.024;2023-04-03T08:24:32;17.10;35.00
70244;DHT22;57634;51.136;17.024;2023-04-03T08:28:02;17.20;33.80
70244;DHT22;57634;51.136;17.024;2023-04-03T08:31:07;17.30;33.50
70244;DHT22;57634;51.136;17.024;2023-04-03T08:34:14;17.00;33.00
70244;DHT22;57634;51.136;17.024;2023-04-03T08:37:16;16.50;32.60
70244;DHT22;57634;51.136;17.024;2023-04-03T08:40:18;15.50;32.90
70244;DHT22;57634;51.136;17.024;2023-04-03T08:50:19;13.20;36.40
70244;DHT22;57634;51.136;17.024;2023-04-03T08:53:28;13.30;36.90
70244;DHT22;57634;51.136;17.024;2023-04-03T08:56:34;13.40;36.90
70244;DHT22;57634;51.136;17.024;2023-04-03T08:59:39;13.70;36.40
70244;DHT22;57634;51.136;17.024;2023-04-03T09:05:57;14.60;36.00
70244;DHT22;57634;51.136;17.024;2023-04-03T09:09:35;15.40;35.60
70244;DHT22;57634;51.136;17.024;2023-04-03T09:12:46;16.40;33.50
70244;DHT22;57634;51.136;17.024;2023-04-03T09:15:53;16.20;32.00
70244;DHT22;57634;51.136;17.024;2023-04-03T09:25:58;13.70;32.90
70244;DHT22;57634;51.136;17.024;2023-04-03T09:29:08;13.10;32.70
70244;DHT22;57634;51.136;17.024;2023-04-03T09:35:30;12.10;34.00
70244;DHT22;57634;51.136;17.024;2023-04-03T09:38:32;12.10;34.70
70244;DHT22;57634;51.136;17.024;2023-04-03T09:41:34;12.00;34.70
70244;DHT22;57634;51.136;17.024;2023-04-03T09:45:18;11.70;34.70
70244;DHT22;57634;51.136;17.024;2023-04-03T09:48:18;11.20;35.50
70244;DHT22;57634;51.136;17.024;2023-04-03T09:51:26;10.90;36.00
70244;DHT22;57634;51.136;17.024;2023-04-03T09:54:37;10.60;36.10
70244;DHT22;57634;51.136;17.024;2023-04-03T09:57:46;10.50;36.40
70244;DHT22;57634;51.136;17.024;2023-04-03T10:01:25;10.50;36.30
70244;DHT22;57634;51.136;17.024;2023-04-03T10:04:40;10.60;36.80
70244;DHT22;57634;51.136;17.024;2023-04-03T10:07:42;10.70;36.70
70244;DHT22;57634;51.136;17.024;2023-04-03T10:10:48;10.70;36.70
70244;DHT22;57634;51.136;17.024;2023-04-03T10:14:00;10.70;36.40
70244;DHT22;57634;51.136;17.024;2023-04-03T10:17:46;10.70;36.10
70244;DHT22;57634;51.136;17.024;2023-04-03T10:20:48;10.60;36.10
70244;DHT22;57634;51.136;17.024;2023-04-03T10:27:21;10.20;37.00
70244;DHT22;57634;51.136;17.024;2023-04-03T10:37:24;10.20;37.40
70244;DHT22;57634;51.136;17.024;2023-04-03T10:40:39;9.90;37.70
70244;DHT22;57634;51.136;17.024;2023-04-03T10:43:50;9.70;38.50
70244;DHT22;57634;51.136;17.024;2023-04-03T10:47:25;10.00;38.60
70244;DHT22;57634;51.136;17.024;2023-04-03T11:00:09;9.70;37.50
70244;DHT22;57634;51.136;17.024;2023-04-03T11:07:01;9.30;39.20
70244;DHT22;57634;51.136;17.024;2023-04-03T11:10:14;9.30;39.60
70244;DHT22;57634;51.136;17.024;2023-04-03T11:13:22;9.30;39.20
70244;DHT22;57634;51.136;17.024;2023-04-03T11:16:35;9.10;39.50
70244;DHT22;57634;51.136;17.024;2023-04-03T11:23:26;9.20;39.70
70244;DHT22;57634;51.136;17.024;2023-04-03T11:26:35;9.30;39.30
70244;DHT22;57634;51.136;17.024;2023-04-03T11:29:40;9.30;39.40
70244;DHT22;57634;51.136;17.024;2023-04-03T11:36:26;9.00;39.00
70244;DHT22;57634;51.136;17.024;2023-04-03T11:39:37;8.90;39.00
70244;DHT22;57634;51.136;17.024;2023-04-03T11:42:42;8.90;39.10
70244;DHT22;57634;51.136;17.024;2023-04-03T11:49:01;9.20;38.70
70244;DHT22;57634;51.136;17.024;2023-04-03T11:52:03;9.10;38.10
70244;DHT22;57634;51.136;17.024;2023-04-03T12:01:56;9.30;38.30
70244;DHT22;57634;51.136;17.024;2023-04-03T12:11:33;9.10;38.40
70244;DHT22;57634;51.136;17.024;2023-04-03T12:24:49;9.00;37.80
70244;DHT22;57634;51.136;17.024;2023-04-03T12:28:19;8.90;37.80
70244;DHT22;57634;51.136;17.024;2023-04-03T12:31:25;9.00;38.10
70244;DHT22;57634;51.136;17.024;2023-04-03T12:34:41;9.10;38.60
70244;DHT22;57634;51.136;17.024;2023-04-03T12:44:44;9.40;38.30
70244;DHT22;57634;51.136;17.024;2023-04-03T12:47:47;9.30;38.30
70244;DHT22;57634;51.136;17.024;2023-04-03T12:50:50;9.40;38.30
70244;DHT22;57634;51.136;17.024;2023-04-03T12:54:12;9.40;38.30
70244;DHT22;57634;51.136;17.024;2023-04-03T12:57:09;9.30;38.20
70244;DHT22;57634;51.136;17.024;2023-04-03T13:00:24;9.20;38.40
70244;DHT22;57634;51.136;17.024;2023-04-03T13:03:58;9.20;38.70
70244;DHT22;57634;51.136;17.024;2023-04-03T13:06:59;9.20;38.70
70244;DHT22;57634;51.136;17.024;2023-04-03T13:13:16;9.00;38.10
70244;DHT22;57634;51.136;17.024;2023-04-03T13:16:17;8.90;38.70
70244;DHT22;57634;51.136;17.024;2023-04-03T13:19:18;9.00;39.00
70244;DHT22;57634;51.136;17.024;2023-04-03T13:22:30;9.10;38.70
70244;DHT22;57634;51.136;17.024;2023-04-03T13:25:35;8.90;38.30
70244;DHT22;57634;51.136;17.024;2023-04-03T13:32:22;8.70;38.50
70244;DHT22;57634;51.136;17.024;2023-04-03T13:35:31;8.70;38.90
70244;DHT22;57634;51.136;17.024;2023-04-03T13:38:34;8.80;38.50
70244;DHT22;57634;51.136;17.024;2023-04-03T13:41:40;8.70;38.40
70244;DHT22;57634;51.136;17.024;2023-04-03T13:44:42;8.80;38.70
70244;DHT22;57634;51.136;17.024;2023-04-03T13:47:46;8.90;38.90
70244;DHT22;57634;51.136;17.024;2023-04-03T13:51:21;9.10;38.90
70244;DHT22;57634;51.136;17.024;2023-04-03T13:54:35;9.10;38.50
70244;DHT22;57634;51.136;17.024;2023-04-03T14:04:00;9.10;39.00
70244;DHT22;57634;51.136;17.024;2023-04-03T14:07:31;9.10;38.50
70244;DHT22;57634;51.136;17.024;2023-04-03T14:10:33;9.10;38.10
70244;DHT22;57634;51.136;17.024;2023-04-03T14:13:35;9.00;38.00
70244;DHT22;57634;51.136;17.024;2023-04-03T14:16:40;9.00;37.90
70244;DHT22;57634;51.136;17.024;2023-04-03T14:19:45;9.00;38.00
70244;DHT22;57634;51.136;17.024;2023-04-03T14:22:47;8.90;38.00
70244;DHT22;57634;51.136;17.024;2023-04-03T14:25:52;8.80;37.60
70244;DHT22;57634;51.136;17.024;2023-04-03T14:28:55;8.70;37.80
70244;DHT22;57634;51.136;17.024;2023-04-03T14:31:57;8.60;37.90
70244;DHT22;57634;51.136;17.024;2023-04-03T14:34:58;8.50;37.90
70244;DHT22;57634;51.136;17.024;2023-04-03T14:38:30;8.50;37.70
70244;DHT22;57634;51.136;17.024;2023-04-03T14:41:32;8.50;37.60
70244;DHT22;57634;51.136;17.024;2023-04-03T14:44:33;8.40;37.40
70244;DHT22;57634;51.136;17.024;2023-04-03T14:50:53;8.20;37.60
70244;DHT22;57634;51.136;17.024;2023-04-03T14:53:54;8.10;37.80
70244;DHT22;57634;51.136;17.024;2023-04-03T14:57:00;8.00;38.10
70244;DHT22;57634;51.136;17.024;2023-04-03T15:00:03;7.90;38.40
70244;DHT22;57634;51.136;17.024;2023-04-03T15:03:05;8.00;38.70
70244;DHT22;57634;51.136;17.024;2023-04-03T15:06:33;8.00;38.80
70244;DHT22;57634;51.136;17.024;2023-04-03T15:09:35;7.90;38.80
70244;DHT22;57634;51.136;17.024;2023-04-03T15:12:37;7.90;38.70
70244;DHT22;57634;51.136;17.024;2023-04-03T15:15:38;7.90;38.70
70244;DHT22;57634;51.136;17.024;2023-04-03T15:18:40;7.80;38.70
70244;DHT22;57634;51.136;17.024;2023-04-03T15:21:42;7.70;38.70
70244;DHT22;57634;51.136;17.024;2023-04-03T15:24:43;7.60;39.10
70244;DHT22;57634;51.136;17.024;2023-04-03T15:27:45;7.50;39.30
70244;DHT22;57634;51.136;17.024;2023-04-03T15:30:46;7.50;39.50
70244;DHT22;57634;51.136;17.024;2023-04-03T15:33:50;7.50;39.70
70244;DHT22;57634;51.136;17.024;2023-04-03T15:36:52;7.50;40.00
70244;DHT22;57634;51.136;17.024;2023-04-03T15:39:53;7.50;40.20
70244;DHT22;57634;51.136;17.024;2023-04-03T15:42:54;7.60;40.50
70244;DHT22;57634;51.136;17.024;2023-04-03T15:46:00;7.60;40.80
70244;DHT22;57634;51.136;17.024;2023-04-03T15:49:28;7.60;40.80
70244;DHT22;57634;51.136;17.024;2023-04-03T15:52:29;7.60;41.10
70244;DHT22;57634;51.136;17.024;2023-04-03T15:55:33;7.60;41.00
70244;DHT22;57634;51.136;17.024;2023-04-03T15:58:36;7.50;41.00
70244;DHT22;57634;51.136;17.024;2023-04-03T16:01:38;7.50;41.20
70244;DHT22;57634;51.136;17.024;2023-04-03T16:04:41;7.40;41.30
70244;DHT22;57634;51.136;17.024;2023-04-03T16:07:43;7.30;41.70
70244;DHT22;57634;51.136;17.024;2023-04-03T16:10:45;7.30;41.90
70244;DHT22;57634;51.136;17.024;2023-04-03T16:13:49;7.20;42.00
70244;DHT22;57634;51.136;17.024;2023-04-03T16:16:50;7.10;42.20
70244;DHT22;57634;51.136;17.024;2023-04-03T16:19:51;7.00;42.30
70244;DHT22;57634;51.136;17.024;2023-04-03T16:22:53;6.90;42.50
70244;DHT22;57634;51.136;17.024;2023-04-03T16:26:22;6.90;43.00
70244;DHT22;57634;51.136;17.024;2023-04-03T16:29:23;6.80;43.20
70244;DHT22;57634;51.136;17.024;2023-04-03T16:32:29;6.80;43.40
70244;DHT22;57634;51.136;17.024;2023-04-03T16:35:31;6.70;43.60
70244;DHT22;57634;51.136;17.024;2023-04-03T16:38:32;6.70;43.70
70244;DHT22;57634;51.136;17.024;2023-04-03T16:41:33;6.60;43.80
70244;DHT22;57634;51.136;17.024;2023-04-03T16:44:35;6.60;44.10
70244;DHT22;57634;51.136;17.024;2023-04-03T16:47:36;6.60;44.40
70244;DHT22;57634;51.136;17.024;2023-04-03T16:50:37;6.60;44.50
70244;DHT22;57634;51.136;17.024;2023-04-03T16:53:39;6.60;44.60
70244;DHT22;57634;51.136;17.024;2023-04-03T16:56:40;6.50;44.70
70244;DHT22;57634;51.136;17.024;2023-04-03T16:59:42;6.50;44.80
70244;DHT22;57634;51.136;17.024;2023-04-03T17:02:43;6.40;44.90
70244;DHT22;57634;51.136;17.024;2023-04-03T17:05:47;6.40;45.00
70244;DHT22;57634;51.136;17.024;2023-04-03T17:09:15;6.40;45.00
70244;DHT22;57634;51.136;17.024;2023-04-03T17:12:17;6.40;45.00
70244;DHT22;57634;51.136;17.024;2023-04-03T17:15:18;6.30;45.10
70244;DHT22;57634;51.136;17.024;2023-04-03T17:18:20;6.20;45.30
70244;DHT22;57634;51.136;17.024;2023-04-03T17:21:22;6.30;45.40
70244;DHT22;57634;51.136;17.024;2023-04-03T17:24:23;6.20;45.30
70244;DHT22;57634;51.136;17.024;2023-04-03T17:27:25;6.20;45.40
70244;DHT22;57634;51.136;17.024;2023-04-03T17:30:27;6.20;45.50
70244;DHT22;57634;51.136;17.024;2023-04-03T17:33:29;6.20;45.60
70244;DHT22;57634;51.136;17.024;2023-04-03T17:36:33;6.20;45.60
70244;DHT22;57634;51.136;17.024;2023-04-03T17:39:34;6.20;45.60
70244;DHT22;57634;51.136;17.024;2023-04-03T17:42:36;6.20;45.90
70244;DHT22;57634;51.136;17.024;2023-04-03T17:45:37;6.20;45.70
70244;DHT22;57634;51.136;17.024;2023-04-03T17:48:40;6.20;45.60
70244;DHT22;57634;51.136;17.024;2023-04-03T17:52:07;6.20;45.60
70244;DHT22;57634;51.136;17.024;2023-04-03T17:55:08;6.20;45.70
70244;DHT22;57634;51.136;17.024;2023-04-03T17:58:10;6.20;45.80
70244;DHT22;57634;51.136;17.024;2023-04-03T18:01:18;6.10;45.80
70244;DHT22;57634;51.136;17.024;2023-04-03T18:04:20;6.10;45.90
70244;DHT22;57634;51.136;17.024;2023-04-03T18:07:21;6.10;46.00
70244;DHT22;57634;51.136;17.024;2023-04-03T18:10:23;6.10;46.10
70244;DHT22;57634;51.136;17.024;2023-04-03T18:13:25;6.10;46.20
70244;DHT22;57634;51.136;17.024;2023-04-03T18:16:27;6.10;46.30
70244;DHT22;57634;51.136;17.024;2023-04-03T18:19:28;6.10;46.40
70244;DHT22;57634;51.136;17.024;2023-04-03T18:22:30;6.10;46.60
70244;DHT22;57634;51.136;17.024;2023-04-03T18:25:32;6.10;46.60
70244;DHT22;57634;51.136;17.024;2023-04-03T18:29:03;6.00;46.60
70244;DHT22;57634;51.136;17.024;2023-04-03T18:32:09;6.00;46.70
70244;DHT22;57634;51.136;17.024;2023-04-03T18:35:12;6.00;46.80
70244;DHT22;57634;51.136;17.024;2023-04-03T18:38:14;6.00;46.90
70244;DHT22;57634;51.136;17.024;2023-04-03T18:41:15;6.00;47.00
70244;DHT22;57634;51.136;17.024;2023-04-03T18:44:20;6.00;47.00
70244;DHT22;57634;51.136;17.024;2023-04-03T18:47:22;6.00;47.10
70244;DHT22;57634;51.136;17.024;2023-04-03T18:50:23;6.00;47.20
70244;DHT22;57634;51.136;17.024;2023-04-03T18:53:25;6.00;47.40
70244;DHT22;57634;51.136;17.024;2023-04-03T18:56:26;6.00;47.40
70244;DHT22;57634;51.136;17.024;2023-04-03T18:59:28;6.10;47.60
70244;DHT22;57634;51.136;17.024;2023-04-03T19:02:29;6.10;47.70
70244;DHT22;57634;51.136;17.024;2023-04-03T19:05:56;6.20;47.80
70244;DHT22;57634;51.136;17.024;2023-04-03T19:08:57;6.20;47.90
70244;DHT22;57634;51.136;17.024;2023-04-03T19:11:59;6.10;48.10
70244;DHT22;57634;51.136;17.024;2023-04-03T19:15:02;6.10;48.10
70244;DHT22;57634;51.136;17.024;2023-04-03T19:18:04;6.10;48.30
70244;DHT22;57634;51.136;17.024;2023-04-03T19:21:05;6.10;48.30
70244;DHT22;57634;51.136;17.024;2023-04-03T19:24:09;6.10;48.40
70244;DHT22;57634;51.136;17.024;2023-04-03T19:27:11;6.10;48.50
70244;DHT22;57634;51.136;17.024;2023-04-03T19:30:13;6.10;48.60
70244;DHT22;57634;51.136;17.024;2023-04-03T19:33:14;6.10;48.70
70244;DHT22;57634;51.136;17.024;2023-04-03T19:36:16;6.20;48.80
70244;DHT22;57634;51.136;17.024;2023-04-03T19:39:18;6.10;48.80
70244;DHT22;57634;51.136;17.024;2023-04-03T19:42:19;6.10;48.90
70244;DHT22;57634;51.136;17.024;2023-04-03T19:45:48;6.10;49.00
70244;DHT22;57634;51.136;17.024;2023-04-03T19:48:50;6.10;49.00
70244;DHT22;57634;51.136;17.024;2023-04-03T19:51:52;6.10;49.10
70244;DHT22;57634;51.136;17.024;2023-04-03T19:54:54;6.10;49.30
70244;DHT22;57634;51.136;17.024;2023-04-03T19:57:58;6.10;49.40
70244;DHT22;57634;51.136;17.024;2023-04-03T20:01:00;6.10;49.60
70244;DHT22;57634;51.136;17.024;2023-04-03T20:04:02;6.00;49.50
70244;DHT22;57634;51.136;17.024;2023-04-03T20:07:03;6.00;49.60
70244;DHT22;57634;51.136;17.024;2023-04-03T20:10:05;6.00;49.70
70244;DHT22;57634;51.136;17.024;2023-04-03T20:13:07;5.90;49.70
70244;DHT22;57634;51.136;17.024;2023-04-03T20:16:10;5.90;49.80
70244;DHT22;57634;51.136;17.024;2023-04-03T20:19:13;5.90;49.90
70244;DHT22;57634;51.136;17.024;2023-04-03T20:22:44;5.90;50.00
70244;DHT22;57634;51.136;17.024;2023-04-03T20:25:46;5.90;50.10
70244;DHT22;57634;51.136;17.024;2023-04-03T20:28:50;5.80;50.10
70244;DHT22;57634;51.136;17.024;2023-04-03T20:31:53;5.80;50.30
70244;DHT22;57634;51.136;17.024;2023-04-03T20:34:55;5.70;50.30
70244;DHT22;57634;51.136;17.024;2023-04-03T20:37:57;5.60;50.40
70244;DHT22;57634;51.136;17.024;2023-04-03T20:40:59;5.50;50.50
70244;DHT22;57634;51.136;17.024;2023-04-03T20:44:00;5.40;50.50
70244;DHT22;57634;51.136;17.024;2023-04-03T20:47:02;5.30;50.60
70244;DHT22;57634;51.136;17.024;2023-04-03T20:50:04;5.20;50.70
70244;DHT22;57634;51.136;17.024;2023-04-03T20:53:06;5.10;50.80
70244;DHT22;57634;51.136;17.024;2023-04-03T20:56:08;5.00;50.90
70244;DHT22;57634;51.136;17.024;2023-04-03T20:59:10;4.90;51.10
70244;DHT22;57634;51.136;17.024;2023-04-03T21:02:42;4.70;51.30
70244;DHT22;57634;51.136;17.024;2023-04-03T21:05:43;4.70;51.60
70244;DHT22;57634;51.136;17.024;2023-04-03T21:22:06;4.10;51.80
70244;DHT22;57634;51.136;17.024;2023-04-03T21:25:09;4.10;52.00
70244;DHT22;57634;51.136;17.024;2023-04-03T21:28:10;4.00;52.00
70244;DHT22;57634;51.136;17.024;2023-04-03T21:31:12;3.90;52.00
70244;DHT22;57634;51.136;17.024;2023-04-03T21:34:17;3.90;52.20